sensor_id;sensor_type;location;lat;lon;timestamp;P1;durP1;ratioP1;P2;durP2;ratioP2
36315;SDS011;22343;50.820;2.666;2023-05-15T00:02:12;59.87;;;38.77;;
36315;SDS011;22343;50.820;2.666;2023-05-15T00:04:57;58.03;;;37.67;;
36315;SDS011;22343;50.820;2.666;2023-05-15T00:07:42;58.33;;;38.77;;
36315;SDS011;22343;50.820;2.666;2023-05-15T00:10:28;57.43;;;37.63;;
36315;SDS011;22343;50.820;2.666;2023-05-15T00:13:13;55.03;;;37.20;;
36315;SDS011;22343;50.820;2.666;2023-05-15T00:15:58;60.80;;;39.97;;
36315;SDS011;22343;50.820;2.666;2023-05-15T00:18:43;64.30;;;40.60;;
36315;SDS011;22343;50.820;2.666;2023-05-15T00:21:30;67.30;;;40.77;;
36315;SDS011;22343;50.820;2.666;2023-05-15T00:24:15;77.03;;;43.20;;
36315;SDS011;22343;50.820;2.666;2023-05-15T00:26:59;78.03;;;43.67;;
36315;SDS011;22343;50.820;2.666;2023-05-15T00:29:44;88.90;;;43.03;;
36315;SDS011;22343;50.820;2.666;2023-05-15T00:32:29;85.20;;;40.87;;
36315;SDS011;22343;50.820;2.666;2023-05-15T00:35:15;81.50;;;39.23;;
36315;SDS011;22343;50.820;2.666;2023-05-15T00:38:00;84.93;;;39.17;;
36315;SDS011;22343;50.820;2.666;2023-05-15T00:40:47;93.27;;;37.07;;
36315;SDS011;22343;50.820;2.666;2023-05-15T00:43:33;77.97;;;37.40;;
36315;SDS011;22343;50.820;2.666;2023-05-15T00:46:20;81.73;;;36.00;;
36315;SDS011;22343;50.820;2.666;2023-05-15T00:49:07;82.67;;;35.93;;
36315;SDS011;22343;50.820;2.666;2023-05-15T00:52:01;77.37;;;36.67;;
36315;SDS011;22343;50.820;2.666;2023-05-15T00:54:47;67.07;;;38.07;;
36315;SDS011;22343;50.820;2.666;2023-05-15T00:57:33;80.00;;;38.73;;
36315;SDS011;22343;50.820;2.666;2023-05-15T01:00:18;93.57;;;39.30;;
36315;SDS011;22343;50.820;2.666;2023-05-15T01:03:04;87.23;;;39.77;;
36315;SDS011;22343;50.820;2.666;2023-05-15T01:05:50;83.17;;;40.17;;
36315;SDS011;22343;50.820;2.666;2023-05-15T01:08:45;84.53;;;37.77;;
36315;SDS011;22343;50.820;2.666;2023-05-15T01:11:31;65.93;;;37.50;;
36315;SDS011;22343;50.820;2.666;2023-05-15T01:14:19;71.67;;;34.87;;
36315;SDS011;22343;50.820;2.666;2023-05-15T01:17:05;60.10;;;35.30;;
36315;SDS011;22343;50.820;2.666;2023-05-15T01:19:50;89.53;;;35.50;;
36315;SDS011;22343;50.820;2.666;2023-05-15T01:29:13;58.87;;;35.80;;
36315;SDS011;22343;50.820;2.666;2023-05-15T01:32:11;65.13;;;37.43;;
36315;SDS011;22343;50.820;2.666;2023-05-15T01:41:14;82.17;;;36.53;;
36315;SDS011;22343;50.820;2.666;2023-05-15T01:44:10;75.77;;;35.53;;
36315;SDS011;22343;50.820;2.666;2023-05-15T01:46:58;78.43;;;36.03;;
36315;SDS011;22343;50.820;2.666;2023-05-15T01:49:46;69.47;;;36.37;;
36315;SDS011;22343;50.820;2.666;2023-05-15T01:52:34;91.17;;;33.97;;
36315;SDS011;22343;50.820;2.666;2023-05-15T01:55:20;97.97;;;33.80;;
36315;SDS011;22343;50.820;2.666;2023-05-15T01:58:05;123.97;;;33.47;;
36315;SDS011;22343;50.820;2.666;2023-05-15T02:00:51;72.07;;;32.83;;
36315;SDS011;22343;50.820;2.666;2023-05-15T02:03:47;81.97;;;33.27;;
36315;SDS011;22343;50.820;2.666;2023-05-15T02:06:33;74.03;;;35.60;;
36315;SDS011;22343;50.820;2.666;2023-05-15T02:09:22;87.03;;;35.90;;
36315;SDS011;22343;50.820;2.666;2023-05-15T02:12:09;80.83;;;33.27;;
36315;SDS011;22343;50.820;2.666;2023-05-15T02:14:55;71.67;;;36.93;;
36315;SDS011;22343;50.820;2.666;2023-05-15T02:17:43;92.13;;;35.07;;
36315;SDS011;22343;50.820;2.666;2023-05-15T02:20:29;80.40;;;35.40;;
36315;SDS011;22343;50.820;2.666;2023-05-15T02:23:15;86.03;;;35.30;;
36315;SDS011;22343;50.820;2.666;2023-05-15T02:29:12;96.73;;;35.73;;
36315;SDS011;22343;50.820;2.666;2023-05-15T02:38:47;73.97;;;36.20;;
36315;SDS011;22343;50.820;2.666;2023-05-15T02:41:37;82.87;;;36.87;;
36315;SDS011;22343;50.820;2.666;2023-05-15T02:44:23;70.57;;;36.77;;
36315;SDS011;22343;50.820;2.666;2023-05-15T02:47:10;65.77;;;36.93;;
36315;SDS011;22343;50.820;2.666;2023-05-15T02:49:55;67.67;;;37.47;;
36315;SDS011;22343;50.820;2.666;2023-05-15T02:52:42;65.03;;;36.70;;
36315;SDS011;22343;50.820;2.666;2023-05-15T02:55:27;62.83;;;36.07;;
36315;SDS011;22343;50.820;2.666;2023-05-15T02:58:13;59.83;;;35.70;;
36315;SDS011;22343;50.820;2.666;2023-05-15T03:00:59;58.77;;;36.37;;
36315;SDS011;22343;50.820;2.666;2023-05-15T03:03:46;58.70;;;35.17;;
36315;SDS011;22343;50.820;2.666;2023-05-15T03:06:32;62.07;;;35.70;;
36315;SDS011;22343;50.820;2.666;2023-05-15T03:09:17;62.57;;;36.33;;
36315;SDS011;22343;50.820;2.666;2023-05-15T03:12:04;64.90;;;37.03;;
36315;SDS011;22343;50.820;2.666;2023-05-15T03:14:52;62.93;;;36.60;;
36315;SDS011;22343;50.820;2.666;2023-05-15T03:17:38;61.93;;;35.57;;
36315;SDS011;22343;50.820;2.666;2023-05-15T03:20:23;63.27;;;35.47;;
36315;SDS011;22343;50.820;2.666;2023-05-15T03:23:09;61.97;;;35.53;;
36315;SDS011;22343;50.820;2.666;2023-05-15T03:25:55;64.17;;;36.13;;
36315;SDS011;22343;50.820;2.666;2023-05-15T03:28:41;65.80;;;37.97;;
36315;SDS011;22343;50.820;2.666;2023-05-15T03:31:26;69.40;;;37.73;;
36315;SDS011;22343;50.820;2.666;2023-05-15T03:34:10;66.07;;;36.83;;
36315;SDS011;22343;50.820;2.666;2023-05-15T03:36:56;68.30;;;37.10;;
36315;SDS011;22343;50.820;2.666;2023-05-15T03:39:41;70.50;;;36.80;;
36315;SDS011;22343;50.820;2.666;2023-05-15T03:42:27;71.63;;;37.20;;
36315;SDS011;22343;50.820;2.666;2023-05-15T03:45:12;71.07;;;35.33;;
36315;SDS011;22343;50.820;2.666;2023-05-15T03:47:57;70.47;;;34.67;;
36315;SDS011;22343;50.820;2.666;2023-05-15T03:50:43;64.83;;;33.53;;
36315;SDS011;22343;50.820;2.666;2023-05-15T03:53:28;67.83;;;34.23;;
36315;SDS011;22343;50.820;2.666;2023-05-15T03:56:13;76.20;;;34.00;;
36315;SDS011;22343;50.820;2.666;2023-05-15T03:58:58;71.13;;;34.37;;
36315;SDS011;22343;50.820;2.666;2023-05-15T04:01:44;71.93;;;33.30;;
36315;SDS011;22343;50.820;2.666;2023-05-15T04:04:29;72.40;;;33.87;;
36315;SDS011;22343;50.820;2.666;2023-05-15T04:07:14;75.60;;;33.30;;
36315;SDS011;22343;50.820;2.666;2023-05-15T04:09:59;69.20;;;33.13;;
36315;SDS011;22343;50.820;2.666;2023-05-15T04:12:44;74.60;;;34.40;;
36315;SDS011;22343;50.820;2.666;2023-05-15T04:15:30;68.03;;;31.60;;
36315;SDS011;22343;50.820;2.666;2023-05-15T04:18:17;76.60;;;34.33;;
36315;SDS011;22343;50.820;2.666;2023-05-15T04:21:02;77.03;;;34.53;;
36315;SDS011;22343;50.820;2.666;2023-05-15T04:23:47;73.40;;;35.33;;
36315;SDS011;22343;50.820;2.666;2023-05-15T04:26:33;73.17;;;32.90;;
36315;SDS011;22343;50.820;2.666;2023-05-15T04:29:18;77.83;;;34.73;;
36315;SDS011;22343;50.820;2.666;2023-05-15T04:32:04;84.63;;;36.03;;
36315;SDS011;22343;50.820;2.666;2023-05-15T04:34:49;87.73;;;35.73;;
36315;SDS011;22343;50.820;2.666;2023-05-15T04:37:35;79.17;;;35.43;;
36315;SDS011;22343;50.820;2.666;2023-05-15T04:40:20;77.60;;;33.47;;
36315;SDS011;22343;50.820;2.666;2023-05-15T04:43:06;78.77;;;33.73;;
36315;SDS011;22343;50.820;2.666;2023-05-15T04:45:51;78.03;;;32.37;;
36315;SDS011;22343;50.820;2.666;2023-05-15T04:48:36;76.57;;;30.93;;
36315;SDS011;22343;50.820;2.666;2023-05-15T04:51:22;76.90;;;31.70;;
36315;SDS011;22343;50.820;2.666;2023-05-15T04:54:08;71.47;;;31.60;;
36315;SDS011;22343;50.820;2.666;2023-05-15T04:56:53;80.73;;;32.33;;
36315;SDS011;22343;50.820;2.666;2023-05-15T04:59:39;77.30;;;33.53;;
36315;SDS011;22343;50.820;2.666;2023-05-15T05:02:24;85.37;;;33.57;;
36315;SDS011;22343;50.820;2.666;2023-05-15T05:05:09;79.03;;;31.77;;
36315;SDS011;22343;50.820;2.666;2023-05-15T05:07:55;75.83;;;31.87;;
36315;SDS011;22343;50.820;2.666;2023-05-15T05:10:39;81.17;;;32.83;;
36315;SDS011;22343;50.820;2.666;2023-05-15T05:13:26;71.87;;;30.53;;
36315;SDS011;22343;50.820;2.666;2023-05-15T05:16:12;73.40;;;30.80;;
36315;SDS011;22343;50.820;2.666;2023-05-15T05:18:57;73.50;;;30.07;;
36315;SDS011;22343;50.820;2.666;2023-05-15T05:21:43;67.83;;;28.33;;
36315;SDS011;22343;50.820;2.666;2023-05-15T05:24:29;67.37;;;30.10;;
36315;SDS011;22343;50.820;2.666;2023-05-15T05:27:14;69.77;;;29.23;;
36315;SDS011;22343;50.820;2.666;2023-05-15T05:29:59;69.77;;;29.87;;
36315;SDS011;22343;50.820;2.666;2023-05-15T05:32:45;65.07;;;30.17;;
36315;SDS011;22343;50.820;2.666;2023-05-15T05:35:31;71.67;;;30.17;;
36315;SDS011;22343;50.820;2.666;2023-05-15T05:38:15;62.97;;;29.07;;
36315;SDS011;22343;50.820;2.666;2023-05-15T05:41:01;61.50;;;27.73;;
36315;SDS011;22343;50.820;2.666;2023-05-15T05:43:47;65.07;;;27.77;;
36315;SDS011;22343;50.820;2.666;2023-05-15T05:46:33;60.87;;;26.33;;
36315;SDS011;22343;50.820;2.666;2023-05-15T05:49:18;51.53;;;24.30;;
36315;SDS011;22343;50.820;2.666;2023-05-15T05:52:05;44.00;;;22.67;;
36315;SDS011;22343;50.820;2.666;2023-05-15T05:54:52;41.30;;;22.10;;
36315;SDS011;22343;50.820;2.666;2023-05-15T05:57:37;43.40;;;22.37;;
36315;SDS011;22343;50.820;2.666;2023-05-15T06:00:22;42.37;;;22.23;;
36315;SDS011;22343;50.820;2.666;2023-05-15T06:03:08;38.63;;;21.93;;
36315;SDS011;22343;50.820;2.666;2023-05-15T06:05:53;43.33;;;22.27;;
36315;SDS011;22343;50.820;2.666;2023-05-15T06:08:37;38.63;;;21.20;;
36315;SDS011;22343;50.820;2.666;2023-05-15T06:11:22;36.03;;;20.40;;
36315;SDS011;22343;50.820;2.666;2023-05-15T06:14:06;42.00;;;22.07;;
36315;SDS011;22343;50.820;2.666;2023-05-15T06:16:51;43.20;;;21.63;;
36315;SDS011;22343;50.820;2.666;2023-05-15T06:19:36;37.67;;;21.47;;
36315;SDS011;22343;50.820;2.666;2023-05-15T06:22:20;41.47;;;21.50;;
36315;SDS011;22343;50.820;2.666;2023-05-15T06:25:05;37.27;;;20.70;;
36315;SDS011;22343;50.820;2.666;2023-05-15T06:27:49;43.17;;;22.97;;
36315;SDS011;22343;50.820;2.666;2023-05-15T06:30:34;42.97;;;21.73;;
36315;SDS011;22343;50.820;2.666;2023-05-15T06:33:18;43.23;;;22.67;;
36315;SDS011;22343;50.820;2.666;2023-05-15T06:36:04;44.73;;;23.53;;
36315;SDS011;22343;50.820;2.666;2023-05-15T06:38:49;44.53;;;22.17;;
36315;SDS011;22343;50.820;2.666;2023-05-15T06:41:33;42.43;;;23.53;;
36315;SDS011;22343;50.820;2.666;2023-05-15T06:44:17;43.90;;;23.63;;
36315;SDS011;22343;50.820;2.666;2023-05-15T06:47:02;43.70;;;24.27;;
36315;SDS011;22343;50.820;2.666;2023-05-15T06:49:47;44.90;;;23.80;;
36315;SDS011;22343;50.820;2.666;2023-05-15T06:52:31;44.33;;;24.90;;
36315;SDS011;22343;50.820;2.666;2023-05-15T06:55:17;47.40;;;25.27;;
36315;SDS011;22343;50.820;2.666;2023-05-15T06:58:01;45.23;;;24.27;;
36315;SDS011;22343;50.820;2.666;2023-05-15T07:00:48;46.17;;;25.67;;
36315;SDS011;22343;50.820;2.666;2023-05-15T07:03:32;47.57;;;26.33;;
36315;SDS011;22343;50.820;2.666;2023-05-15T07:06:17;50.67;;;27.20;;
36315;SDS011;22343;50.820;2.666;2023-05-15T07:09:01;45.57;;;26.33;;
36315;SDS011;22343;50.820;2.666;2023-05-15T07:11:45;52.30;;;28.50;;
36315;SDS011;22343;50.820;2.666;2023-05-15T07:14:30;47.07;;;27.80;;
36315;SDS011;22343;50.820;2.666;2023-05-15T07:17:14;46.53;;;28.07;;
36315;SDS011;22343;50.820;2.666;2023-05-15T07:20:00;50.07;;;28.73;;
36315;SDS011;22343;50.820;2.666;2023-05-15T07:22:45;52.07;;;29.90;;
36315;SDS011;22343;50.820;2.666;2023-05-15T07:25:29;52.67;;;30.37;;
36315;SDS011;22343;50.820;2.666;2023-05-15T07:28:15;50.93;;;30.63;;
36315;SDS011;22343;50.820;2.666;2023-05-15T07:31:00;49.53;;;30.63;;
36315;SDS011;22343;50.820;2.666;2023-05-15T07:33:46;50.33;;;31.33;;
36315;SDS011;22343;50.820;2.666;2023-05-15T07:36:31;50.37;;;31.97;;
36315;SDS011;22343;50.820;2.666;2023-05-15T07:39:15;59.23;;;34.13;;
36315;SDS011;22343;50.820;2.666;2023-05-15T07:42:00;53.47;;;32.47;;
36315;SDS011;22343;50.820;2.666;2023-05-15T07:44:44;53.93;;;32.43;;
36315;SDS011;22343;50.820;2.666;2023-05-15T07:47:29;56.07;;;35.00;;
36315;SDS011;22343;50.820;2.666;2023-05-15T07:50:15;54.10;;;35.57;;
36315;SDS011;22343;50.820;2.666;2023-05-15T07:52:59;56.07;;;36.67;;
36315;SDS011;22343;50.820;2.666;2023-05-15T07:55:45;59.90;;;37.67;;
36315;SDS011;22343;50.820;2.666;2023-05-15T07:58:29;61.67;;;34.37;;
36315;SDS011;22343;50.820;2.666;2023-05-15T08:01:15;60.43;;;34.30;;
36315;SDS011;22343;50.820;2.666;2023-05-15T08:04:02;57.33;;;33.20;;
36315;SDS011;22343;50.820;2.666;2023-05-15T08:06:50;60.70;;;32.90;;
36315;SDS011;22343;50.820;2.666;2023-05-15T08:09:34;51.17;;;31.43;;
36315;SDS011;22343;50.820;2.666;2023-05-15T08:12:20;42.07;;;26.17;;
36315;SDS011;22343;50.820;2.666;2023-05-15T08:15:06;39.50;;;23.77;;
36315;SDS011;22343;50.820;2.666;2023-05-15T08:17:52;30.90;;;21.17;;
36315;SDS011;22343;50.820;2.666;2023-05-15T08:20:38;32.23;;;20.67;;
36315;SDS011;22343;50.820;2.666;2023-05-15T08:23:23;30.23;;;19.43;;
36315;SDS011;22343;50.820;2.666;2023-05-15T08:26:09;26.00;;;16.20;;
36315;SDS011;22343;50.820;2.666;2023-05-15T08:28:55;22.30;;;14.10;;
36315;SDS011;22343;50.820;2.666;2023-05-15T08:31:40;18.63;;;11.37;;
36315;SDS011;22343;50.820;2.666;2023-05-15T08:34:26;16.43;;;10.77;;
36315;SDS011;22343;50.820;2.666;2023-05-15T08:37:11;16.73;;;11.37;;
36315;SDS011;22343;50.820;2.666;2023-05-15T08:39:56;13.70;;;8.70;;
36315;SDS011;22343;50.820;2.666;2023-05-15T08:42:44;16.57;;;9.23;;
36315;SDS011;22343;50.820;2.666;2023-05-15T08:45:32;15.03;;;7.63;;
36315;SDS011;22343;50.820;2.666;2023-05-15T08:48:17;9.50;;;5.10;;
36315;SDS011;22343;50.820;2.666;2023-05-15T08:51:03;10.07;;;4.53;;
36315;SDS011;22343;50.820;2.666;2023-05-15T08:53:50;9.03;;;4.40;;
36315;SDS011;22343;50.820;2.666;2023-05-15T08:56:34;7.70;;;4.00;;
36315;SDS011;22343;50.820;2.666;2023-05-15T08:59:19;10.33;;;4.10;;
36315;SDS011;22343;50.820;2.666;2023-05-15T09:02:03;9.10;;;4.23;;
36315;SDS011;22343;50.820;2.666;2023-05-15T09:04:48;4.93;;;3.00;;
36315;SDS011;22343;50.820;2.666;2023-05-15T09:07:32;9.97;;;3.60;;
36315;SDS011;22343;50.820;2.666;2023-05-15T09:10:17;7.27;;;3.27;;
36315;SDS011;22343;50.820;2.666;2023-05-15T09:13:02;7.73;;;3.83;;
36315;SDS011;22343;50.820;2.666;2023-05-15T09:15:47;5.40;;;2.77;;
36315;SDS011;22343;50.820;2.666;2023-05-15T09:18:31;8.80;;;3.50;;
36315;SDS011;22343;50.820;2.666;2023-05-15T09:21:28;9.10;;;4.10;;
36315;SDS011;22343;50.820;2.666;2023-05-15T09:24:19;10.23;;;3.50;;
36315;SDS011;22343;50.820;2.666;2023-05-15T09:27:08;6.63;;;3.37;;
36315;SDS011;22343;50.820;2.666;2023-05-15T09:30:06;7.23;;;3.80;;
36315;SDS011;22343;50.820;2.666;2023-05-15T09:32:54;8.27;;;3.90;;
36315;SDS011;22343;50.820;2.666;2023-05-15T09:35:41;8.53;;;3.50;;
36315;SDS011;22343;50.820;2.666;2023-05-15T09:38:27;5.80;;;3.90;;
36315;SDS011;22343;50.820;2.666;2023-05-15T09:41:12;5.97;;;3.20;;
36315;SDS011;22343;50.820;2.666;2023-05-15T09:43:57;7.17;;;3.60;;
36315;SDS011;22343;50.820;2.666;2023-05-15T09:46:43;8.00;;;4.37;;
36315;SDS011;22343;50.820;2.666;2023-05-15T09:49:29;6.40;;;3.10;;
36315;SDS011;22343;50.820;2.666;2023-05-15T09:52:15;4.87;;;2.80;;
36315;SDS011;22343;50.820;2.666;2023-05-15T09:55:00;8.30;;;3.80;;
36315;SDS011;22343;50.820;2.666;2023-05-15T09:58:02;9.83;;;4.40;;
36315;SDS011;22343;50.820;2.666;2023-05-15T10:00:52;7.23;;;4.00;;
36315;SDS011;22343;50.820;2.666;2023-05-15T10:03:38;5.37;;;3.13;;
36315;SDS011;22343;50.820;2.666;2023-05-15T10:06:33;5.87;;;2.90;;
36315;SDS011;22343;50.820;2.666;2023-05-15T10:09:29;8.27;;;3.60;;
36315;SDS011;22343;50.820;2.666;2023-05-15T10:12:15;8.30;;;4.60;;
36315;SDS011;22343;50.820;2.666;2023-05-15T10:14:59;8.67;;;4.07;;
36315;SDS011;22343;50.820;2.666;2023-05-15T10:17:48;8.07;;;4.57;;
36315;SDS011;22343;50.820;2.666;2023-05-15T10:20:34;8.10;;;4.13;;
36315;SDS011;22343;50.820;2.666;2023-05-15T10:23:31;6.80;;;3.67;;
36315;SDS011;22343;50.820;2.666;2023-05-15T10:26:19;6.77;;;3.87;;
36315;SDS011;22343;50.820;2.666;2023-05-15T10:29:12;9.00;;;3.60;;
36315;SDS011;22343;50.820;2.666;2023-05-15T10:31:57;7.67;;;4.13;;
36315;SDS011;22343;50.820;2.666;2023-05-15T10:34:43;8.13;;;4.47;;
36315;SDS011;22343;50.820;2.666;2023-05-15T10:37:28;7.30;;;3.93;;
36315;SDS011;22343;50.820;2.666;2023-05-15T10:40:13;9.27;;;4.30;;
36315;SDS011;22343;50.820;2.666;2023-05-15T10:42:59;8.67;;;5.30;;
36315;SDS011;22343;50.820;2.666;2023-05-15T10:45:46;7.70;;;4.33;;
36315;SDS011;22343;50.820;2.666;2023-05-15T10:48:31;8.87;;;4.27;;
36315;SDS011;22343;50.820;2.666;2023-05-15T10:51:24;7.50;;;4.30;;
36315;SDS011;22343;50.820;2.666;2023-05-15T10:54:12;5.93;;;3.97;;
36315;SDS011;22343;50.820;2.666;2023-05-15T10:56:57;7.07;;;4.27;;
36315;SDS011;22343;50.820;2.666;2023-05-15T10:59:41;5.37;;;4.30;;
36315;SDS011;22343;50.820;2.666;2023-05-15T11:02:28;9.70;;;4.90;;
36315;SDS011;22343;50.820;2.666;2023-05-15T11:05:14;10.47;;;5.20;;
36315;SDS011;22343;50.820;2.666;2023-05-15T11:10:58;8.37;;;4.60;;
36315;SDS011;22343;50.820;2.666;2023-05-15T11:19:53;7.60;;;4.60;;
36315;SDS011;22343;50.820;2.666;2023-05-15T11:22:40;8.30;;;3.87;;
36315;SDS011;22343;50.820;2.666;2023-05-15T11:25:28;6.07;;;3.50;;
36315;SDS011;22343;50.820;2.666;2023-05-15T11:28:23;7.77;;;3.70;;
36315;SDS011;22343;50.820;2.666;2023-05-15T11:31:09;6.70;;;3.67;;
36315;SDS011;22343;50.820;2.666;2023-05-15T11:33:53;9.07;;;4.30;;
36315;SDS011;22343;50.820;2.666;2023-05-15T11:36:37;10.60;;;5.30;;
36315;SDS011;22343;50.820;2.666;2023-05-15T11:39:26;7.13;;;4.60;;
36315;SDS011;22343;50.820;2.666;2023-05-15T11:42:11;9.87;;;5.00;;
36315;SDS011;22343;50.820;2.666;2023-05-15T11:44:56;7.30;;;4.40;;
36315;SDS011;22343;50.820;2.666;2023-05-15T11:47:41;6.73;;;4.03;;
36315;SDS011;22343;50.820;2.666;2023-05-15T11:50:29;9.50;;;4.47;;
36315;SDS011;22343;50.820;2.666;2023-05-15T11:53:14;8.17;;;3.60;;
36315;SDS011;22343;50.820;2.666;2023-05-15T11:55:59;5.67;;;3.40;;
36315;SDS011;22343;50.820;2.666;2023-05-15T11:58:46;7.73;;;3.37;;
36315;SDS011;22343;50.820;2.666;2023-05-15T12:01:38;5.77;;;3.20;;
36315;SDS011;22343;50.820;2.666;2023-05-15T12:04:24;5.67;;;3.10;;
36315;SDS011;22343;50.820;2.666;2023-05-15T12:07:08;5.20;;;3.10;;
36315;SDS011;22343;50.820;2.666;2023-05-15T12:09:54;6.93;;;3.57;;
36315;SDS011;22343;50.820;2.666;2023-05-15T12:12:42;4.47;;;3.17;;
36315;SDS011;22343;50.820;2.666;2023-05-15T12:15:29;6.83;;;3.30;;
36315;SDS011;22343;50.820;2.666;2023-05-15T12:18:13;7.37;;;3.60;;
36315;SDS011;22343;50.820;2.666;2023-05-15T12:20:58;8.00;;;3.47;;
36315;SDS011;22343;50.820;2.666;2023-05-15T12:23:49;5.27;;;3.20;;
36315;SDS011;22343;50.820;2.666;2023-05-15T12:26:36;8.03;;;3.50;;
36315;SDS011;22343;50.820;2.666;2023-05-15T12:29:22;8.70;;;3.50;;
36315;SDS011;22343;50.820;2.666;2023-05-15T12:32:07;7.80;;;3.50;;
36315;SDS011;22343;50.820;2.666;2023-05-15T12:34:52;10.13;;;3.87;;
36315;SDS011;22343;50.820;2.666;2023-05-15T12:37:37;8.47;;;3.77;;
36315;SDS011;22343;50.820;2.666;2023-05-15T12:40:21;8.87;;;3.47;;
36315;SDS011;22343;50.820;2.666;2023-05-15T12:43:06;5.97;;;3.17;;
36315;SDS011;22343;50.820;2.666;2023-05-15T12:45:52;4.57;;;3.00;;
36315;SDS011;22343;50.820;2.666;2023-05-15T12:48:37;7.97;;;3.60;;
36315;SDS011;22343;50.820;2.666;2023-05-15T12:51:23;11.20;;;3.77;;
36315;SDS011;22343;50.820;2.666;2023-05-15T12:54:20;10.13;;;3.73;;
36315;SDS011;22343;50.820;2.666;2023-05-15T12:57:07;8.30;;;3.60;;
36315;SDS011;22343;50.820;2.666;2023-05-15T12:59:52;8.67;;;3.80;;
36315;SDS011;22343;50.820;2.666;2023-05-15T13:02:37;10.07;;;3.90;;
36315;SDS011;22343;50.820;2.666;2023-05-15T13:05:23;7.27;;;3.50;;
36315;SDS011;22343;50.820;2.666;2023-05-15T13:08:17;10.17;;;3.83;;
36315;SDS011;22343;50.820;2.666;2023-05-15T13:11:03;9.50;;;4.03;;
36315;SDS011;22343;50.820;2.666;2023-05-15T13:13:48;8.73;;;3.77;;
36315;SDS011;22343;50.820;2.666;2023-05-15T13:16:34;10.63;;;4.27;;
36315;SDS011;22343;50.820;2.666;2023-05-15T13:19:19;10.03;;;3.50;;
36315;SDS011;22343;50.820;2.666;2023-05-15T13:22:04;9.47;;;3.97;;
36315;SDS011;22343;50.820;2.666;2023-05-15T13:24:50;8.47;;;3.90;;
36315;SDS011;22343;50.820;2.666;2023-05-15T13:27:36;11.77;;;4.50;;
36315;SDS011;22343;50.820;2.666;2023-05-15T13:30:21;9.40;;;4.53;;
36315;SDS011;22343;50.820;2.666;2023-05-15T13:33:07;6.40;;;3.17;;
36315;SDS011;22343;50.820;2.666;2023-05-15T13:35:53;6.87;;;3.40;;
36315;SDS011;22343;50.820;2.666;2023-05-15T13:38:38;7.73;;;3.73;;
36315;SDS011;22343;50.820;2.666;2023-05-15T13:41:23;5.10;;;3.80;;
36315;SDS011;22343;50.820;2.666;2023-05-15T13:44:09;5.87;;;3.77;;
36315;SDS011;22343;50.820;2.666;2023-05-15T13:46:55;6.80;;;3.33;;
36315;SDS011;22343;50.820;2.666;2023-05-15T13:49:40;7.23;;;3.47;;
36315;SDS011;22343;50.820;2.666;2023-05-15T13:52:25;5.17;;;3.50;;
36315;SDS011;22343;50.820;2.666;2023-05-15T13:55:11;7.33;;;3.90;;
36315;SDS011;22343;50.820;2.666;2023-05-15T13:57:57;7.77;;;4.17;;
36315;SDS011;22343;50.820;2.666;2023-05-15T14:00:42;6.80;;;4.37;;
36315;SDS011;22343;50.820;2.666;2023-05-15T14:03:28;7.67;;;4.03;;
36315;SDS011;22343;50.820;2.666;2023-05-15T14:06:14;10.77;;;4.70;;
36315;SDS011;22343;50.820;2.666;2023-05-15T14:08:59;7.00;;;4.53;;
36315;SDS011;22343;50.820;2.666;2023-05-15T14:11:45;9.43;;;4.20;;
36315;SDS011;22343;50.820;2.666;2023-05-15T14:14:30;7.23;;;4.13;;
36315;SDS011;22343;50.820;2.666;2023-05-15T14:17:15;4.90;;;3.40;;
36315;SDS011;22343;50.820;2.666;2023-05-15T14:20:01;9.97;;;4.07;;
36315;SDS011;22343;50.820;2.666;2023-05-15T14:22:45;8.40;;;3.60;;
36315;SDS011;22343;50.820;2.666;2023-05-15T14:25:30;4.97;;;3.10;;
36315;SDS011;22343;50.820;2.666;2023-05-15T14:28:14;7.70;;;3.80;;
36315;SDS011;22343;50.820;2.666;2023-05-15T14:30:58;7.77;;;3.63;;
36315;SDS011;22343;50.820;2.666;2023-05-15T14:33:47;4.77;;;2.80;;
36315;SDS011;22343;50.820;2.666;2023-05-15T14:36:32;8.07;;;3.60;;
36315;SDS011;22343;50.820;2.666;2023-05-15T14:39:17;8.03;;;3.50;;
36315;SDS011;22343;50.820;2.666;2023-05-15T14:42:01;9.03;;;4.00;;
36315;SDS011;22343;50.820;2.666;2023-05-15T14:44:46;7.80;;;2.90;;
36315;SDS011;22343;50.820;2.666;2023-05-15T14:47:30;7.90;;;3.40;;
36315;SDS011;22343;50.820;2.666;2023-05-15T14:50:14;4.93;;;3.03;;
36315;SDS011;22343;50.820;2.666;2023-05-15T14:52:58;7.50;;;3.10;;
36315;SDS011;22343;50.820;2.666;2023-05-15T14:55:43;11.33;;;3.30;;
36315;SDS011;22343;50.820;2.666;2023-05-15T14:58:27;6.43;;;3.23;;
36315;SDS011;22343;50.820;2.666;2023-05-15T15:01:12;9.53;;;3.70;;
36315;SDS011;22343;50.820;2.666;2023-05-15T15:03:56;7.07;;;3.27;;
36315;SDS011;22343;50.820;2.666;2023-05-15T15:06:41;8.57;;;3.27;;
36315;SDS011;22343;50.820;2.666;2023-05-15T15:09:25;8.87;;;3.20;;
36315;SDS011;22343;50.820;2.666;2023-05-15T15:12:10;7.57;;;3.43;;
36315;SDS011;22343;50.820;2.666;2023-05-15T15:14:54;5.87;;;3.13;;
36315;SDS011;22343;50.820;2.666;2023-05-15T15:17:38;12.97;;;3.67;;
36315;SDS011;22343;50.820;2.666;2023-05-15T15:20:23;10.53;;;3.40;;
36315;SDS011;22343;50.820;2.666;2023-05-15T15:23:08;8.60;;;3.27;;
36315;SDS011;22343;50.820;2.666;2023-05-15T15:25:52;9.27;;;3.53;;
36315;SDS011;22343;50.820;2.666;2023-05-15T15:28:37;7.80;;;3.27;;
36315;SDS011;22343;50.820;2.666;2023-05-15T15:31:21;5.63;;;3.20;;
36315;SDS011;22343;50.820;2.666;2023-05-15T15:34:05;9.53;;;4.03;;
36315;SDS011;22343;50.820;2.666;2023-05-15T15:36:52;5.63;;;2.50;;
36315;SDS011;22343;50.820;2.666;2023-05-15T15:39:36;6.70;;;3.37;;
36315;SDS011;22343;50.820;2.666;2023-05-15T15:42:20;11.37;;;3.50;;
36315;SDS011;22343;50.820;2.666;2023-05-15T15:45:06;5.27;;;3.23;;
36315;SDS011;22343;50.820;2.666;2023-05-15T15:47:51;6.47;;;2.63;;
36315;SDS011;22343;50.820;2.666;2023-05-15T15:50:35;8.53;;;3.43;;
36315;SDS011;22343;50.820;2.666;2023-05-15T15:53:20;6.50;;;2.97;;
36315;SDS011;22343;50.820;2.666;2023-05-15T15:56:05;9.40;;;3.87;;
36315;SDS011;22343;50.820;2.666;2023-05-15T15:58:50;8.37;;;3.50;;
36315;SDS011;22343;50.820;2.666;2023-05-15T16:01:34;8.83;;;3.73;;
36315;SDS011;22343;50.820;2.666;2023-05-15T16:04:19;11.80;;;3.40;;
36315;SDS011;22343;50.820;2.666;2023-05-15T16:07:05;7.03;;;3.67;;
36315;SDS011;22343;50.820;2.666;2023-05-15T16:09:49;9.23;;;3.50;;
36315;SDS011;22343;50.820;2.666;2023-05-15T16:12:34;8.53;;;3.57;;
36315;SDS011;22343;50.820;2.666;2023-05-15T16:15:18;12.23;;;3.90;;
36315;SDS011;22343;50.820;2.666;2023-05-15T16:18:03;10.13;;;3.40;;
36315;SDS011;22343;50.820;2.666;2023-05-15T16:20:52;14.60;;;3.73;;
36315;SDS011;22343;50.820;2.666;2023-05-15T16:23:38;12.30;;;4.33;;
36315;SDS011;22343;50.820;2.666;2023-05-15T16:26:30;9.40;;;3.73;;
36315;SDS011;22343;50.820;2.666;2023-05-15T16:29:16;9.33;;;3.60;;
36315;SDS011;22343;50.820;2.666;2023-05-15T16:32:04;11.60;;;3.80;;
36315;SDS011;22343;50.820;2.666;2023-05-15T16:34:49;6.10;;;3.20;;
36315;SDS011;22343;50.820;2.666;2023-05-15T16:37:35;7.97;;;3.50;;
36315;SDS011;22343;50.820;2.666;2023-05-15T16:40:20;7.13;;;3.43;;
36315;SDS011;22343;50.820;2.666;2023-05-15T16:43:05;9.30;;;3.80;;
36315;SDS011;22343;50.820;2.666;2023-05-15T16:45:49;8.27;;;3.70;;
36315;SDS011;22343;50.820;2.666;2023-05-15T16:48:35;6.57;;;3.30;;
36315;SDS011;22343;50.820;2.666;2023-05-15T16:51:20;6.47;;;3.53;;
36315;SDS011;22343;50.820;2.666;2023-05-15T16:54:04;6.87;;;3.43;;
36315;SDS011;22343;50.820;2.666;2023-05-15T16:56:48;6.77;;;2.97;;